sensor_id;sensor_type;location;lat;lon;timestamp;P1;durP1;ratioP1;P2;durP2;ratioP2
12593;SDS011;6362;50.208;9.182;2023-11-18T00:00:22;4.53;;;3.35;;
12593;SDS011;6362;50.208;9.182;2023-11-18T00:02:48;4.03;;;3.05;;
12593;SDS011;6362;50.208;9.182;2023-11-18T00:05:13;3.50;;;2.90;;
12593;SDS011;6362;50.208;9.182;2023-11-18T00:07:39;4.15;;;3.35;;
12593;SDS011;6362;50.208;9.182;2023-11-18T00:10:05;4.88;;;3.80;;
12593;SDS011;6362;50.208;9.182;2023-11-18T00:12:31;4.25;;;2.92;;
12593;SDS011;6362;50.208;9.182;2023-11-18T00:15:00;4.70;;;3.05;;
12593;SDS011;6362;50.208;9.182;2023-11-18T00:17:28;4.13;;;3.05;;
12593;SDS011;6362;50.208;9.182;2023-11-18T00:19:55;5.70;;;3.38;;
12593;SDS011;6362;50.208;9.182;2023-11-18T00:22:20;4.70;;;2.90;;
12593;SDS011;6362;50.208;9.182;2023-11-18T00:24:46;4.28;;;3.30;;
12593;SDS011;6362;50.208;9.182;2023-11-18T00:27:11;4.45;;;2.83;;
12593;SDS011;6362;50.208;9.182;2023-11-18T00:29:40;3.75;;;2.70;;
12593;SDS011;6362;50.208;9.182;2023-11-18T00:32:06;3.67;;;2.70;;
12593;SDS011;6362;50.208;9.182;2023-11-18T00:34:32;4.43;;;2.83;;
12593;SDS011;6362;50.208;9.182;2023-11-18T00:36:58;3.92;;;3.00;;
12593;SDS011;6362;50.208;9.182;2023-11-18T00:39:24;3.63;;;2.70;;
12593;SDS011;6362;50.208;9.182;2023-11-18T00:41:50;3.75;;;2.58;;
12593;SDS011;6362;50.208;9.182;2023-11-18T00:44:15;3.50;;;2.55;;
12593;SDS011;6362;50.208;9.182;2023-11-18T00:46:41;3.90;;;2.55;;
12593;SDS011;6362;50.208;9.182;2023-11-18T00:49:06;4.03;;;2.95;;
12593;SDS011;6362;50.208;9.182;2023-11-18T00:51:32;3.53;;;2.83;;
12593;SDS011;6362;50.208;9.182;2023-11-18T00:53:57;6.18;;;3.47;;
12593;SDS011;6362;50.208;9.182;2023-11-18T00:56:25;4.82;;;3.13;;
12593;SDS011;6362;50.208;9.182;2023-11-18T00:58:51;4.97;;;3.05;;
12593;SDS011;6362;50.208;9.182;2023-11-18T01:01:17;4.50;;;3.22;;
12593;SDS011;6362;50.208;9.182;2023-11-18T01:03:46;3.78;;;2.72;;
12593;SDS011;6362;50.208;9.182;2023-11-18T01:06:12;3.88;;;2.40;;
12593;SDS011;6362;50.208;9.182;2023-11-18T01:08:40;3.90;;;2.83;;
12593;SDS011;6362;50.208;9.182;2023-11-18T01:11:09;3.45;;;2.40;;
12593;SDS011;6362;50.208;9.182;2023-11-18T01:13:34;3.15;;;2.70;;
12593;SDS011;6362;50.208;9.182;2023-11-18T01:16:00;4.28;;;2.75;;
12593;SDS011;6362;50.208;9.182;2023-11-18T01:18:25;3.55;;;2.55;;
12593;SDS011;6362;50.208;9.182;2023-11-18T01:20:50;3.05;;;2.28;;
12593;SDS011;6362;50.208;9.182;2023-11-18T01:23:16;4.97;;;3.63;;
12593;SDS011;6362;50.208;9.182;2023-11-18T01:25:41;5.10;;;3.35;;
12593;SDS011;6362;50.208;9.182;2023-11-18T01:28:07;4.18;;;3.20;;
12593;SDS011;6362;50.208;9.182;2023-11-18T01:30:32;4.03;;;3.05;;
12593;SDS011;6362;50.208;9.182;2023-11-18T01:32:58;4.10;;;2.75;;
12593;SDS011;6362;50.208;9.182;2023-11-18T01:35:27;4.40;;;2.40;;
12593;SDS011;6362;50.208;9.182;2023-11-18T01:37:53;3.97;;;2.97;;
12593;SDS011;6362;50.208;9.182;2023-11-18T01:40:19;4.13;;;2.58;;
12593;SDS011;6362;50.208;9.182;2023-11-18T01:42:45;4.00;;;2.65;;
12593;SDS011;6362;50.208;9.182;2023-11-18T01:45:11;4.15;;;1.90;;
12593;SDS011;6362;50.208;9.182;2023-11-18T01:47:39;2.58;;;2.17;;
12593;SDS011;6362;50.208;9.182;2023-11-18T01:50:06;3.63;;;2.78;;
12593;SDS011;6362;50.208;9.182;2023-11-18T01:52:36;2.85;;;2.22;;
12593;SDS011;6362;50.208;9.182;2023-11-18T01:55:02;3.10;;;2.28;;
12593;SDS011;6362;50.208;9.182;2023-11-18T01:57:31;3.65;;;1.92;;
12593;SDS011;6362;50.208;9.182;2023-11-18T01:59:58;6.60;;;3.88;;
12593;SDS011;6362;50.208;9.182;2023-11-18T02:02:24;7.28;;;4.85;;
12593;SDS011;6362;50.208;9.182;2023-11-18T02:04:50;6.30;;;4.15;;
12593;SDS011;6362;50.208;9.182;2023-11-18T02:07:16;7.63;;;5.00;;
12593;SDS011;6362;50.208;9.182;2023-11-18T02:09:43;6.93;;;4.72;;
12593;SDS011;6362;50.208;9.182;2023-11-18T02:14:59;6.43;;;3.92;;
12593;SDS011;6362;50.208;9.182;2023-11-18T02:17:26;7.60;;;4.22;;
12593;SDS011;6362;50.208;9.182;2023-11-18T02:19:54;5.90;;;3.58;;
12593;SDS011;6362;50.208;9.182;2023-11-18T02:22:22;7.38;;;4.78;;
12593;SDS011;6362;50.208;9.182;2023-11-18T02:24:49;7.30;;;4.30;;
12593;SDS011;6362;50.208;9.182;2023-11-18T02:27:15;5.80;;;4.25;;
12593;SDS011;6362;50.208;9.182;2023-11-18T02:29:42;15.10;;;5.07;;
12593;SDS011;6362;50.208;9.182;2023-11-18T02:32:28;7.18;;;4.82;;
12593;SDS011;6362;50.208;9.182;2023-11-18T02:37:54;7.72;;;4.18;;
12593;SDS011;6362;50.208;9.182;2023-11-18T02:40:35;6.28;;;4.07;;
12593;SDS011;6362;50.208;9.182;2023-11-18T02:43:04;5.85;;;3.88;;
12593;SDS011;6362;50.208;9.182;2023-11-18T02:45:31;7.90;;;4.00;;
12593;SDS011;6362;50.208;9.182;2023-11-18T02:47:59;8.60;;;4.53;;
12593;SDS011;6362;50.208;9.182;2023-11-18T02:50:25;9.32;;;4.60;;
12593;SDS011;6362;50.208;9.182;2023-11-18T02:52:52;7.38;;;4.18;;
12593;SDS011;6362;50.208;9.182;2023-11-18T02:55:18;5.85;;;3.78;;
12593;SDS011;6362;50.208;9.182;2023-11-18T02:57:43;6.68;;;4.10;;
12593;SDS011;6362;50.208;9.182;2023-11-18T03:00:09;19.77;;;4.75;;
12593;SDS011;6362;50.208;9.182;2023-11-18T03:02:36;15.43;;;4.50;;
12593;SDS011;6362;50.208;9.182;2023-11-18T03:05:05;6.00;;;3.90;;
12593;SDS011;6362;50.208;9.182;2023-11-18T03:07:32;7.15;;;4.40;;
12593;SDS011;6362;50.208;9.182;2023-11-18T03:09:58;5.68;;;3.67;;
12593;SDS011;6362;50.208;9.182;2023-11-18T03:12:24;22.65;;;4.93;;
12593;SDS011;6362;50.208;9.182;2023-11-18T03:14:53;9.95;;;3.70;;
12593;SDS011;6362;50.208;9.182;2023-11-18T03:17:19;5.65;;;3.65;;
12593;SDS011;6362;50.208;9.182;2023-11-18T03:19:45;4.93;;;3.58;;
12593;SDS011;6362;50.208;9.182;2023-11-18T03:22:11;7.82;;;4.32;;
12593;SDS011;6362;50.208;9.182;2023-11-18T03:24:38;4.45;;;3.22;;
12593;SDS011;6362;50.208;9.182;2023-11-18T03:27:04;6.45;;;3.70;;
12593;SDS011;6362;50.208;9.182;2023-11-18T03:29:29;7.43;;;4.85;;
12593;SDS011;6362;50.208;9.182;2023-11-18T03:31:54;6.53;;;3.72;;
12593;SDS011;6362;50.208;9.182;2023-11-18T03:34:20;5.05;;;3.58;;
12593;SDS011;6362;50.208;9.182;2023-11-18T03:36:46;4.80;;;3.28;;
12593;SDS011;6362;50.208;9.182;2023-11-18T03:39:12;5.10;;;3.55;;
12593;SDS011;6362;50.208;9.182;2023-11-18T03:41:37;16.40;;;4.10;;
12593;SDS011;6362;50.208;9.182;2023-11-18T03:44:04;14.00;;;4.22;;
12593;SDS011;6362;50.208;9.182;2023-11-18T03:46:29;10.70;;;4.25;;
12593;SDS011;6362;50.208;9.182;2023-11-18T03:48:59;5.70;;;4.00;;
12593;SDS011;6362;50.208;9.182;2023-11-18T03:51:25;4.93;;;3.33;;
12593;SDS011;6362;50.208;9.182;2023-11-18T03:53:51;4.70;;;3.20;;
12593;SDS011;6362;50.208;9.182;2023-11-18T03:56:17;4.85;;;2.90;;
12593;SDS011;6362;50.208;9.182;2023-11-18T03:58:45;4.13;;;2.60;;
12593;SDS011;6362;50.208;9.182;2023-11-18T04:01:23;4.30;;;2.92;;
12593;SDS011;6362;50.208;9.182;2023-11-18T04:03:52;6.50;;;4.05;;
12593;SDS011;6362;50.208;9.182;2023-11-18T04:06:18;5.43;;;3.28;;
12593;SDS011;6362;50.208;9.182;2023-11-18T04:08:46;6.85;;;4.07;;
12593;SDS011;6362;50.208;9.182;2023-11-18T04:11:12;4.43;;;3.13;;
12593;SDS011;6362;50.208;9.182;2023-11-18T04:13:39;4.03;;;2.72;;
12593;SDS011;6362;50.208;9.182;2023-11-18T04:16:11;4.13;;;2.58;;
12593;SDS011;6362;50.208;9.182;2023-11-18T04:18:41;4.07;;;3.03;;
12593;SDS011;6362;50.208;9.182;2023-11-18T04:21:09;5.28;;;3.45;;
12593;SDS011;6362;50.208;9.182;2023-11-18T04:23:36;5.55;;;3.70;;
12593;SDS011;6362;50.208;9.182;2023-11-18T04:26:03;7.28;;;4.03;;
12593;SDS011;6362;50.208;9.182;2023-11-18T04:28:29;4.90;;;3.20;;
12593;SDS011;6362;50.208;9.182;2023-11-18T04:30:55;4.32;;;2.75;;
12593;SDS011;6362;50.208;9.182;2023-11-18T04:33:20;3.78;;;2.60;;
12593;SDS011;6362;50.208;9.182;2023-11-18T04:35:46;5.22;;;3.38;;
12593;SDS011;6362;50.208;9.182;2023-11-18T04:38:12;4.13;;;2.83;;
12593;SDS011;6362;50.208;9.182;2023-11-18T04:40:37;5.00;;;3.33;;
12593;SDS011;6362;50.208;9.182;2023-11-18T04:43:04;4.13;;;3.22;;
12593;SDS011;6362;50.208;9.182;2023-11-18T04:45:30;6.55;;;3.90;;
12593;SDS011;6362;50.208;9.182;2023-11-18T04:47:55;4.45;;;3.00;;
12593;SDS011;6362;50.208;9.182;2023-11-18T04:50:21;5.03;;;3.38;;
12593;SDS011;6362;50.208;9.182;2023-11-18T04:52:47;4.45;;;3.55;;
12593;SDS011;6362;50.208;9.182;2023-11-18T04:55:12;5.15;;;3.55;;
12593;SDS011;6362;50.208;9.182;2023-11-18T04:57:40;5.85;;;3.60;;
12593;SDS011;6362;50.208;9.182;2023-11-18T05:00:06;4.78;;;3.28;;
12593;SDS011;6362;50.208;9.182;2023-11-18T05:02:38;4.97;;;3.38;;
12593;SDS011;6362;50.208;9.182;2023-11-18T05:05:04;4.60;;;3.67;;
12593;SDS011;6362;50.208;9.182;2023-11-18T05:07:33;5.00;;;3.22;;
12593;SDS011;6362;50.208;9.182;2023-11-18T05:09:59;6.60;;;3.35;;
12593;SDS011;6362;50.208;9.182;2023-11-18T05:12:25;4.43;;;3.30;;
12593;SDS011;6362;50.208;9.182;2023-11-18T05:14:51;5.03;;;3.45;;
12593;SDS011;6362;50.208;9.182;2023-11-18T05:17:17;4.18;;;2.85;;
12593;SDS011;6362;50.208;9.182;2023-11-18T05:19:42;5.13;;;3.65;;
12593;SDS011;6362;50.208;9.182;2023-11-18T05:22:08;5.18;;;3.60;;
12593;SDS011;6362;50.208;9.182;2023-11-18T05:24:34;5.32;;;3.58;;
12593;SDS011;6362;50.208;9.182;2023-11-18T05:26:59;8.88;;;4.30;;
12593;SDS011;6362;50.208;9.182;2023-11-18T05:29:28;6.80;;;4.63;;
12593;SDS011;6362;50.208;9.182;2023-11-18T05:31:54;6.32;;;4.45;;
12593;SDS011;6362;50.208;9.182;2023-11-18T05:34:22;6.13;;;3.25;;
12593;SDS011;6362;50.208;9.182;2023-11-18T05:36:49;5.55;;;3.53;;
12593;SDS011;6362;50.208;9.182;2023-11-18T05:39:19;6.65;;;3.90;;
12593;SDS011;6362;50.208;9.182;2023-11-18T05:41:46;5.97;;;4.25;;
12593;SDS011;6362;50.208;9.182;2023-11-18T05:44:15;5.32;;;3.70;;
12593;SDS011;6362;50.208;9.182;2023-11-18T05:46:44;6.03;;;3.63;;
12593;SDS011;6362;50.208;9.182;2023-11-18T05:49:16;5.53;;;3.40;;
12593;SDS011;6362;50.208;9.182;2023-11-18T05:51:42;5.25;;;3.47;;
12593;SDS011;6362;50.208;9.182;2023-11-18T05:54:08;6.05;;;3.40;;
12593;SDS011;6362;50.208;9.182;2023-11-18T05:56:33;7.55;;;4.68;;
12593;SDS011;6362;50.208;9.182;2023-11-18T05:58:59;7.97;;;4.65;;
12593;SDS011;6362;50.208;9.182;2023-11-18T06:01:24;7.60;;;4.88;;
12593;SDS011;6362;50.208;9.182;2023-11-18T06:03:52;9.75;;;5.80;;
12593;SDS011;6362;50.208;9.182;2023-11-18T06:06:18;7.15;;;4.85;;
12593;SDS011;6362;50.208;9.182;2023-11-18T06:08:46;8.40;;;4.78;;
12593;SDS011;6362;50.208;9.182;2023-11-18T06:11:12;7.22;;;4.55;;
12593;SDS011;6362;50.208;9.182;2023-11-18T06:13:42;8.80;;;4.45;;
12593;SDS011;6362;50.208;9.182;2023-11-18T06:16:15;6.05;;;4.40;;
12593;SDS011;6362;50.208;9.182;2023-11-18T06:18:45;7.03;;;4.20;;
12593;SDS011;6362;50.208;9.182;2023-11-18T06:21:15;5.85;;;3.70;;
12593;SDS011;6362;50.208;9.182;2023-11-18T06:23:43;7.50;;;4.32;;
12593;SDS011;6362;50.208;9.182;2023-11-18T06:26:10;6.63;;;4.15;;
12593;SDS011;6362;50.208;9.182;2023-11-18T06:28:43;6.82;;;4.85;;
12593;SDS011;6362;50.208;9.182;2023-11-18T06:31:09;7.15;;;4.72;;
12593;SDS011;6362;50.208;9.182;2023-11-18T06:33:39;6.93;;;4.45;;
12593;SDS011;6362;50.208;9.182;2023-11-18T06:36:17;9.90;;;5.10;;
12593;SDS011;6362;50.208;9.182;2023-11-18T06:38:44;8.75;;;5.07;;
12593;SDS011;6362;50.208;9.182;2023-11-18T06:41:11;10.77;;;5.28;;
12593;SDS011;6362;50.208;9.182;2023-11-18T06:43:39;9.48;;;5.35;;
12593;SDS011;6362;50.208;9.182;2023-11-18T06:46:27;9.43;;;5.60;;
12593;SDS011;6362;50.208;9.182;2023-11-18T06:48:56;8.65;;;5.53;;
12593;SDS011;6362;50.208;9.182;2023-11-18T06:51:24;10.13;;;5.18;;
12593;SDS011;6362;50.208;9.182;2023-11-18T06:53:52;10.30;;;6.20;;
12593;SDS011;6362;50.208;9.182;2023-11-18T06:56:22;9.18;;;5.65;;
12593;SDS011;6362;50.208;9.182;2023-11-18T06:58:48;14.73;;;6.40;;
12593;SDS011;6362;50.208;9.182;2023-11-18T07:01:13;8.90;;;5.05;;
12593;SDS011;6362;50.208;9.182;2023-11-18T07:03:42;9.35;;;6.05;;
12593;SDS011;6362;50.208;9.182;2023-11-18T07:06:09;11.48;;;6.90;;
12593;SDS011;6362;50.208;9.182;2023-11-18T07:08:38;10.00;;;6.20;;
12593;SDS011;6362;50.208;9.182;2023-11-18T07:11:04;9.57;;;5.50;;
12593;SDS011;6362;50.208;9.182;2023-11-18T07:13:31;12.18;;;6.43;;
12593;SDS011;6362;50.208;9.182;2023-11-18T07:15:58;11.07;;;6.00;;
12593;SDS011;6362;50.208;9.182;2023-11-18T07:18:24;11.75;;;6.40;;
12593;SDS011;6362;50.208;9.182;2023-11-18T07:20:50;13.55;;;6.38;;
12593;SDS011;6362;50.208;9.182;2023-11-18T07:23:18;9.93;;;5.93;;
12593;SDS011;6362;50.208;9.182;2023-11-18T07:25:44;10.43;;;6.30;;
12593;SDS011;6362;50.208;9.182;2023-11-18T07:28:13;13.18;;;7.20;;
12593;SDS011;6362;50.208;9.182;2023-11-18T07:30:42;11.95;;;6.50;;
12593;SDS011;6362;50.208;9.182;2023-11-18T07:33:12;11.00;;;6.22;;
12593;SDS011;6362;50.208;9.182;2023-11-18T07:35:39;12.48;;;6.55;;
12593;SDS011;6362;50.208;9.182;2023-11-18T07:38:04;12.10;;;6.70;;
12593;SDS011;6362;50.208;9.182;2023-11-18T07:40:32;11.23;;;6.30;;
12593;SDS011;6362;50.208;9.182;2023-11-18T07:42:58;14.98;;;6.78;;
12593;SDS011;6362;50.208;9.182;2023-11-18T07:45:26;19.00;;;10.70;;
12593;SDS011;6362;50.208;9.182;2023-11-18T07:47:54;19.50;;;10.60;;
12593;SDS011;6362;50.208;9.182;2023-11-18T07:50:20;17.33;;;10.00;;
12593;SDS011;6362;50.208;9.182;2023-11-18T07:52:49;15.93;;;8.27;;
12593;SDS011;6362;50.208;9.182;2023-11-18T07:55:15;20.02;;;9.68;;
12593;SDS011;6362;50.208;9.182;2023-11-18T07:57:41;15.07;;;8.80;;
12593;SDS011;6362;50.208;9.182;2023-11-18T08:00:07;18.90;;;10.48;;
12593;SDS011;6362;50.208;9.182;2023-11-18T08:02:37;16.33;;;9.70;;
12593;SDS011;6362;50.208;9.182;2023-11-18T08:05:04;15.40;;;8.32;;
12593;SDS011;6362;50.208;9.182;2023-11-18T08:07:33;11.80;;;6.72;;
12593;SDS011;6362;50.208;9.182;2023-11-18T08:10:00;10.52;;;5.60;;
12593;SDS011;6362;50.208;9.182;2023-11-18T08:12:32;8.10;;;5.63;;
12593;SDS011;6362;50.208;9.182;2023-11-18T08:14:58;10.48;;;5.95;;
12593;SDS011;6362;50.208;9.182;2023-11-18T08:17:25;7.95;;;5.20;;
12593;SDS011;6362;50.208;9.182;2023-11-18T08:19:51;8.98;;;5.22;;
12593;SDS011;6362;50.208;9.182;2023-11-18T08:22:18;8.30;;;5.18;;
12593;SDS011;6362;50.208;9.182;2023-11-18T08:24:44;8.73;;;5.70;;
12593;SDS011;6362;50.208;9.182;2023-11-18T08:27:11;10.98;;;6.40;;
12593;SDS011;6362;50.208;9.182;2023-11-18T08:29:37;9.10;;;5.95;;
12593;SDS011;6362;50.208;9.182;2023-11-18T08:32:04;8.93;;;5.40;;
12593;SDS011;6362;50.208;9.182;2023-11-18T08:34:31;7.63;;;4.95;;
12593;SDS011;6362;50.208;9.182;2023-11-18T08:37:00;9.57;;;5.20;;
12593;SDS011;6362;50.208;9.182;2023-11-18T08:39:28;7.38;;;5.10;;
12593;SDS011;6362;50.208;9.182;2023-11-18T08:41:54;8.23;;;4.65;;
12593;SDS011;6362;50.208;9.182;2023-11-18T08:44:19;7.78;;;4.35;;
12593;SDS011;6362;50.208;9.182;2023-11-18T08:46:45;6.32;;;4.25;;
12593;SDS011;6362;50.208;9.182;2023-11-18T08:49:11;7.38;;;4.78;;
12593;SDS011;6362;50.208;9.182;2023-11-18T08:51:37;5.75;;;3.47;;
12593;SDS011;6362;50.208;9.182;2023-11-18T08:54:03;8.15;;;4.72;;
12593;SDS011;6362;50.208;9.182;2023-11-18T08:56:47;7.53;;;4.60;;
12593;SDS011;6362;50.208;9.182;2023-11-18T08:59:17;7.47;;;4.00;;
12593;SDS011;6362;50.208;9.182;2023-11-18T09:01:49;6.97;;;4.78;;
12593;SDS011;6362;50.208;9.182;2023-11-18T09:04:24;8.73;;;4.80;;
12593;SDS011;6362;50.208;9.182;2023-11-18T09:06:50;8.45;;;5.10;;
12593;SDS011;6362;50.208;9.182;2023-11-18T09:09:22;7.68;;;4.55;;
12593;SDS011;6362;50.208;9.182;2023-11-18T09:11:56;9.18;;;5.05;;
12593;SDS011;6362;50.208;9.182;2023-11-18T09:14:26;7.63;;;5.65;;
12593;SDS011;6362;50.208;9.182;2023-11-18T09:16:52;10.07;;;5.45;;
12593;SDS011;6362;50.208;9.182;2023-11-18T09:19:21;9.95;;;6.30;;
12593;SDS011;6362;50.208;9.182;2023-11-18T09:21:50;7.40;;;4.45;;
12593;SDS011;6362;50.208;9.182;2023-11-18T09:24:17;8.48;;;4.80;;
12593;SDS011;6362;50.208;9.182;2023-11-18T09:26:45;9.30;;;4.70;;
12593;SDS011;6362;50.208;9.182;2023-11-18T09:29:15;6.60;;;4.18;;
12593;SDS011;6362;50.208;9.182;2023-11-18T09:31:43;6.95;;;4.45;;
12593;SDS011;6362;50.208;9.182;2023-11-18T09:34:13;8.65;;;5.25;;
12593;SDS011;6362;50.208;9.182;2023-11-18T09:36:42;8.93;;;5.40;;
12593;SDS011;6362;50.208;9.182;2023-11-18T09:39:09;11.55;;;5.93;;
12593;SDS011;6362;50.208;9.182;2023-11-18T09:41:42;10.73;;;5.68;;
12593;SDS011;6362;50.208;9.182;2023-11-18T09:44:07;9.23;;;5.40;;
12593;SDS011;6362;50.208;9.182;2023-11-18T09:46:32;14.35;;;7.03;;
12593;SDS011;6362;50.208;9.182;2023-11-18T09:51:50;12.30;;;6.65;;
12593;SDS011;6362;50.208;9.182;2023-11-18T09:59:30;9.88;;;6.53;;
12593;SDS011;6362;50.208;9.182;2023-11-18T10:02:00;9.63;;;6.68;;
12593;SDS011;6362;50.208;9.182;2023-11-18T10:04:29;11.75;;;6.40;;
12593;SDS011;6362;50.208;9.182;2023-11-18T10:06:56;11.93;;;5.82;;
12593;SDS011;6362;50.208;9.182;2023-11-18T10:09:25;8.63;;;5.65;;
12593;SDS011;6362;50.208;9.182;2023-11-18T10:12:02;8.77;;;6.50;;
12593;SDS011;6362;50.208;9.182;2023-11-18T10:14:34;8.63;;;5.70;;
12593;SDS011;6362;50.208;9.182;2023-11-18T10:17:04;9.48;;;6.50;;
12593;SDS011;6362;50.208;9.182;2023-11-18T10:22:24;8.27;;;5.38;;
12593;SDS011;6362;50.208;9.182;2023-11-18T10:24:54;9.65;;;5.40;;
12593;SDS011;6362;50.208;9.182;2023-11-18T10:27:25;8.63;;;5.50;;
12593;SDS011;6362;50.208;9.182;2023-11-18T10:29:57;9.68;;;5.55;;
12593;SDS011;6362;50.208;9.182;2023-11-18T10:32:23;10.75;;;6.10;;
12593;SDS011;6362;50.208;9.182;2023-11-18T10:34:53;9.45;;;5.72;;
12593;SDS011;6362;50.208;9.182;2023-11-18T10:37:21;10.02;;;6.38;;
12593;SDS011;6362;50.208;9.182;2023-11-18T10:39:47;10.38;;;5.85;;
12593;SDS011;6362;50.208;9.182;2023-11-18T10:42:16;10.63;;;6.47;;
12593;SDS011;6362;50.208;9.182;2023-11-18T10:45:17;7.78;;;5.22;;
12593;SDS011;6362;50.208;9.182;2023-11-18T10:47:37;11.13;;;6.95;;
12593;SDS011;6362;50.208;9.182;2023-11-18T10:50:07;8.75;;;4.97;;
12593;SDS011;6362;50.208;9.182;2023-11-18T10:52:35;8.55;;;5.95;;
12593;SDS011;6362;50.208;9.182;2023-11-18T10:55:02;9.38;;;6.05;;
12593;SDS011;6362;50.208;9.182;2023-11-18T10:57:37;11.38;;;6.35;;
12593;SDS011;6362;50.208;9.182;2023-11-18T11:00:06;10.57;;;6.43;;
12593;SDS011;6362;50.208;9.182;2023-11-18T11:02:39;9.43;;;6.03;;
12593;SDS011;6362;50.208;9.182;2023-11-18T11:05:06;13.80;;;8.65;;
12593;SDS011;6362;50.208;9.182;2023-11-18T11:07:52;11.20;;;6.50;;
12593;SDS011;6362;50.208;9.182;2023-11-18T11:10:18;9.70;;;7.07;;
12593;SDS011;6362;50.208;9.182;2023-11-18T11:12:50;8.52;;;6.65;;
12593;SDS011;6362;50.208;9.182;2023-11-18T11:15:18;10.30;;;6.53;;
12593;SDS011;6362;50.208;9.182;2023-11-18T11:17:48;9.77;;;6.07;;
12593;SDS011;6362;50.208;9.182;2023-11-18T11:20:23;8.55;;;5.65;;
12593;SDS011;6362;50.208;9.182;2023-11-18T11:26:10;8.38;;;5.75;;
12593;SDS011;6362;50.208;9.182;2023-11-18T11:31:39;8.80;;;5.82;;
12593;SDS011;6362;50.208;9.182;2023-11-18T11:34:18;11.18;;;6.47;;
12593;SDS011;6362;50.208;9.182;2023-11-18T11:36:48;7.65;;;5.10;;
12593;SDS011;6362;50.208;9.182;2023-11-18T11:39:15;13.20;;;6.93;;
12593;SDS011;6362;50.208;9.182;2023-11-18T11:41:53;9.88;;;6.93;;
12593;SDS011;6362;50.208;9.182;2023-11-18T11:44:24;8.63;;;5.90;;
12593;SDS011;6362;50.208;9.182;2023-11-18T11:46:56;10.10;;;6.38;;
12593;SDS011;6362;50.208;9.182;2023-11-18T11:49:25;9.77;;;5.63;;
12593;SDS011;6362;50.208;9.182;2023-11-18T11:55:00;7.80;;;6.20;;
12593;SDS011;6362;50.208;9.182;2023-11-18T11:57:37;9.57;;;5.80;;
12593;SDS011;6362;50.208;9.182;2023-11-18T12:00:04;11.80;;;6.57;;
12593;SDS011;6362;50.208;9.182;2023-11-18T12:02:41;8.93;;;6.00;;
12593;SDS011;6362;50.208;9.182;2023-11-18T12:05:15;10.45;;;6.70;;
12593;SDS011;6362;50.208;9.182;2023-11-18T12:07:44;7.95;;;5.78;;
12593;SDS011;6362;50.208;9.182;2023-11-18T12:10:11;9.00;;;5.88;;
12593;SDS011;6362;50.208;9.182;2023-11-18T12:12:46;9.90;;;6.18;;
12593;SDS011;6362;50.208;9.182;2023-11-18T12:15:11;9.75;;;5.82;;
12593;SDS011;6362;50.208;9.182;2023-11-18T12:23:07;10.23;;;5.82;;
12593;SDS011;6362;50.208;9.182;2023-11-18T12:25:48;7.53;;;5.35;;
12593;SDS011;6362;50.208;9.182;2023-11-18T12:30:52;10.75;;;5.07;;
12593;SDS011;6362;50.208;9.182;2023-11-18T12:33:22;10.10;;;5.03;;
12593;SDS011;6362;50.208;9.182;2023-11-18T12:41:48;9.13;;;4.50;;
12593;SDS011;6362;50.208;9.182;2023-11-18T12:44:36;9.07;;;5.05;;
12593;SDS011;6362;50.208;9.182;2023-11-18T12:47:23;7.40;;;5.10;;
12593;SDS011;6362;50.208;9.182;2023-11-18T12:49:53;10.68;;;6.85;;
12593;SDS011;6362;50.208;9.182;2023-11-18T12:52:22;11.05;;;6.70;;
12593;SDS011;6362;50.208;9.182;2023-11-18T12:54:48;9.95;;;5.57;;
12593;SDS011;6362;50.208;9.182;2023-11-18T12:57:20;7.78;;;5.40;;
12593;SDS011;6362;50.208;9.182;2023-11-18T12:59:48;9.02;;;5.30;;
12593;SDS011;6362;50.208;9.182;2023-11-18T13:02:15;8.38;;;5.47;;
12593;SDS011;6362;50.208;9.182;2023-11-18T13:04:47;11.95;;;6.25;;
12593;SDS011;6362;50.208;9.182;2023-11-18T13:07:14;12.27;;;7.10;;
12593;SDS011;6362;50.208;9.182;2023-11-18T13:09:44;10.32;;;6.57;;
12593;SDS011;6362;50.208;9.182;2023-11-18T13:12:11;12.90;;;6.30;;
12593;SDS011;6362;50.208;9.182;2023-11-18T13:14:40;11.77;;;7.03;;
12593;SDS011;6362;50.208;9.182;2023-11-18T13:17:11;8.63;;;5.63;;
12593;SDS011;6362;50.208;9.182;2023-11-18T13:19:38;12.73;;;10.18;;
12593;SDS011;6362;50.208;9.182;2023-11-18T13:22:08;15.98;;;8.55;;
12593;SDS011;6362;50.208;9.182;2023-11-18T13:24:38;12.30;;;6.35;;
12593;SDS011;6362;50.208;9.182;2023-11-18T13:27:05;10.88;;;6.53;;
12593;SDS011;6362;50.208;9.182;2023-11-18T13:29:32;10.95;;;5.45;;
12593;SDS011;6362;50.208;9.182;2023-11-18T13:31:59;6.85;;;4.45;;
12593;SDS011;6362;50.208;9.182;2023-11-18T13:34:29;8.13;;;4.20;;
12593;SDS011;6362;50.208;9.182;2023-11-18T13:36:58;7.95;;;4.57;;
12593;SDS011;6362;50.208;9.182;2023-11-18T13:39:24;9.82;;;5.20;;
12593;SDS011;6362;50.208;9.182;2023-11-18T13:41:52;7.13;;;5.35;;
12593;SDS011;6362;50.208;9.182;2023-11-18T13:44:36;8.82;;;6.93;;
12593;SDS011;6362;50.208;9.182;2023-11-18T13:47:09;7.88;;;4.85;;
12593;SDS011;6362;50.208;9.182;2023-11-18T13:49:39;7.07;;;4.90;;
12593;SDS011;6362;50.208;9.182;2023-11-18T13:52:05;9.00;;;4.68;;
12593;SDS011;6362;50.208;9.182;2023-11-18T13:54:34;6.50;;;4.78;;
12593;SDS011;6362;50.208;9.182;2023-11-18T13:57:00;10.23;;;4.15;;
12593;SDS011;6362;50.208;9.182;2023-11-18T13:59:28;7.55;;;4.03;;
12593;SDS011;6362;50.208;9.182;2023-11-18T14:01:54;9.13;;;4.30;;
12593;SDS011;6362;50.208;9.182;2023-11-18T14:04:23;7.78;;;5.13;;
12593;SDS011;6362;50.208;9.182;2023-11-18T14:06:56;9.88;;;4.07;;
12593;SDS011;6362;50.208;9.182;2023-11-18T14:09:22;9.73;;;4.82;;
12593;SDS011;6362;50.208;9.182;2023-11-18T14:11:53;8.85;;;5.40;;
12593;SDS011;6362;50.208;9.182;2023-11-18T14:14:24;6.97;;;4.10;;
12593;SDS011;6362;50.208;9.182;2023-11-18T14:16:52;5.35;;;3.88;;
12593;SDS011;6362;50.208;9.182;2023-11-18T14:19:19;9.60;;;4.93;;
12593;SDS011;6362;50.208;9.182;2023-11-18T14:21:45;6.18;;;4.43;;
12593;SDS011;6362;50.208;9.182;2023-11-18T14:24:10;6.95;;;3.53;;
12593;SDS011;6362;50.208;9.182;2023-11-18T14:26:39;12.07;;;6.20;;
12593;SDS011;6362;50.208;9.182;2023-11-18T14:29:06;6.68;;;4.18;;
12593;SDS011;6362;50.208;9.182;2023-11-18T14:31:32;9.07;;;4.65;;
12593;SDS011;6362;50.208;9.182;2023-11-18T14:34:00;9.15;;;4.22;;
12593;SDS011;6362;50.208;9.182;2023-11-18T14:36:26;6.05;;;4.18;;
12593;SDS011;6362;50.208;9.182;2023-11-18T14:38:52;5.35;;;3.30;;
12593;SDS011;6362;50.208;9.182;2023-11-18T14:41:18;5.20;;;3.53;;
12593;SDS011;6362;50.208;9.182;2023-11-18T14:43:45;6.47;;;3.30;;
12593;SDS011;6362;50.208;9.182;2023-11-18T14:46:11;9.25;;;3.38;;
12593;SDS011;6362;50.208;9.182;2023-11-18T14:48:38;5.45;;;3.17;;
12593;SDS011;6362;50.208;9.182;2023-11-18T14:51:03;6.07;;;3.78;;
12593;SDS011;6362;50.208;9.182;2023-11-18T14:53:29;9.77;;;4.55;;
12593;SDS011;6362;50.208;9.182;2023-11-18T14:55:55;4.57;;;2.72;;
12593;SDS011;6362;50.208;9.182;2023-11-18T14:58:22;6.03;;;2.90;;
12593;SDS011;6362;50.208;9.182;2023-11-18T15:00:48;5.07;;;3.47;;
12593;SDS011;6362;50.208;9.182;2023-11-18T15:03:14;6.07;;;4.18;;
12593;SDS011;6362;50.208;9.182;2023-11-18T15:05:41;5.75;;;3.72;;
12593;SDS011;6362;50.208;9.182;2023-11-18T15:08:09;8.73;;;4.35;;
12593;SDS011;6362;50.208;9.182;2023-11-18T15:10:34;7.72;;;4.80;;
12593;SDS011;6362;50.208;9.182;2023-11-18T15:13:02;7.75;;;4.05;;
12593;SDS011;6362;50.208;9.182;2023-11-18T15:15:28;6.30;;;3.85;;
12593;SDS011;6362;50.208;9.182;2023-11-18T15:17:59;8.40;;;4.13;;
12593;SDS011;6362;50.208;9.182;2023-11-18T15:20:29;10.45;;;4.47;;
12593;SDS011;6362;50.208;9.182;2023-11-18T15:22:55;8.52;;;4.40;;
12593;SDS011;6362;50.208;9.182;2023-11-18T15:25:20;11.80;;;4.07;;
12593;SDS011;6362;50.208;9.182;2023-11-18T15:27:46;6.95;;;4.70;;
12593;SDS011;6362;50.208;9.182;2023-11-18T15:30:12;7.57;;;4.38;;
12593;SDS011;6362;50.208;9.182;2023-11-18T15:32:39;7.63;;;3.63;;
12593;SDS011;6362;50.208;9.182;2023-11-18T15:35:06;7.45;;;3.80;;
12593;SDS011;6362;50.208;9.182;2023-11-18T15:37:36;4.88;;;3.50;;
12593;SDS011;6362;50.208;9.182;2023-11-18T15:40:03;9.25;;;4.35;;
12593;SDS011;6362;50.208;9.182;2023-11-18T15:42:42;6.63;;;3.53;;